createdAt,value
2022-08-23T00:00:19.472Z,26.06
2022-08-23T00:00:51.379Z,26.00
2022-08-23T00:01:23.879Z,26.01
2022-08-23T00:01:56.432Z,26.06
2022-08-23T00:02:29.059Z,26.03
2022-08-23T00:03:00.688Z,26.02
2022-08-23T00:03:34.930Z,26.04
2022-08-23T00:04:08.059Z,25.97
2022-08-23T00:04:40.665Z,25.99
2022-08-23T00:05:32.172Z,26.06
2022-08-23T00:06:03.792Z,26.08
2022-08-23T00:06:35.357Z,26.04
2022-08-23T00:07:08.278Z,26.06
2022-08-23T00:07:41.979Z,26.02
2022-08-23T00:08:13.545Z,26.00
2022-08-23T00:08:48.445Z,26.01
2022-08-23T00:09:20.742Z,26.03
2022-08-23T00:09:52.364Z,26.00
2022-08-23T00:10:23.875Z,26.01
2022-08-23T00:10:55.656Z,25.98
2022-08-23T00:11:35.000Z,25.98
2022-08-23T00:12:14.137Z,25.98
2022-08-23T00:12:45.920Z,25.93
2022-08-23T00:13:17.380Z,25.92
2022-08-23T00:13:48.806Z,25.94
2022-08-23T00:14:21.829Z,25.93
2022-08-23T00:14:54.420Z,25.92
2022-08-23T00:15:25.984Z,25.95
2022-08-23T00:15:57.855Z,25.93
2022-08-23T00:16:29.540Z,25.91
2022-08-23T00:17:00.973Z,25.90
2022-08-23T00:17:34.289Z,25.90
2022-08-23T00:18:06.282Z,25.85
2022-08-23T00:18:37.695Z,25.84
2022-08-23T00:19:09.763Z,25.79
2022-08-23T00:19:41.255Z,25.76
2022-08-23T00:20:13.340Z,25.80
2022-08-23T00:20:44.809Z,25.79
2022-08-23T00:21:16.471Z,25.80
2022-08-23T00:21:48.130Z,25.80
2022-08-23T00:22:19.572Z,25.79
2022-08-23T00:22:51.060Z,25.80
2022-08-23T00:23:22.501Z,25.79
2022-08-23T00:23:53.951Z,25.79
2022-08-23T00:24:25.502Z,25.77
2022-08-23T00:24:57.262Z,25.78
2022-08-23T00:25:28.717Z,25.76
2022-08-23T00:26:03.224Z,25.77
2022-08-23T00:26:53.047Z,25.80
2022-08-23T00:27:24.511Z,25.82
2022-08-23T00:27:56.250Z,25.80
2022-08-23T00:28:27.653Z,25.81
2022-08-23T00:28:59.187Z,25.80
2022-08-23T00:29:32.127Z,25.79
2022-08-23T00:30:04.257Z,25.78
2022-08-23T00:30:35.825Z,25.80
2022-08-23T00:31:07.255Z,25.81
2022-08-23T00:31:38.690Z,25.80
2022-08-23T00:32:11.399Z,25.82
2022-08-23T00:32:42.907Z,25.81
2022-08-23T00:33:14.381Z,25.76
2022-08-23T00:33:45.859Z,25.77
2022-08-23T00:34:17.375Z,25.77
2022-08-23T00:34:48.894Z,25.78
2022-08-23T00:35:23.496Z,25.79
2022-08-23T00:35:58.166Z,25.77
2022-08-23T00:36:29.567Z,25.78
2022-08-23T00:37:01.168Z,25.80
2022-08-23T00:37:32.656Z,25.80
2022-08-23T00:38:31.998Z,25.76
2022-08-23T00:38:55.611Z,25.69
2022-08-23T00:39:27.123Z,25.73
2022-08-23T00:39:58.999Z,25.74
2022-08-23T00:40:30.454Z,25.72
2022-08-23T00:41:01.955Z,25.73
2022-08-23T00:41:33.660Z,25.74
2022-08-23T00:42:12.428Z,25.72
2022-08-23T00:43:16.099Z,25.71
2022-08-23T00:43:47.628Z,25.71
2022-08-23T00:44:21.359Z,25.71
2022-08-23T00:44:52.858Z,25.72
2022-08-23T00:45:27.145Z,25.72
2022-08-23T00:46:10.685Z,25.73
2022-08-23T00:46:43.237Z,25.69
2022-08-23T00:47:14.714Z,25.70
2022-08-23T00:47:46.294Z,25.70
2022-08-23T00:48:17.802Z,25.69
2022-08-23T00:48:49.338Z,25.72
2022-08-23T00:49:20.830Z,25.70
2022-08-23T00:49:54.134Z,25.71
2022-08-23T00:50:36.984Z,25.71
2022-08-23T00:51:15.125Z,25.70
2022-08-23T00:51:55.733Z,25.71
2022-08-23T00:52:30.347Z,25.71
2022-08-23T00:54:21.969Z,25.72
2022-08-23T00:54:59.823Z,25.72
2022-08-23T00:55:39.720Z,25.72
2022-08-23T00:56:35.714Z,25.70
2022-08-23T00:57:21.786Z,25.69
2022-08-23T00:58:11.357Z,25.67
2022-08-23T00:59:05.334Z,25.68
2022-08-23T00:59:58.091Z,25.69
2022-08-23T01:00:49.822Z,25.68
2022-08-23T01:01:32.549Z,25.67
2022-08-23T01:02:23.790Z,25.63
2022-08-23T02:44:04.168Z,25.33
2022-08-23T02:44:43.105Z,25.33
2022-08-23T02:45:26.506Z,25.33
2022-08-23T02:47:15.682Z,25.32
2022-08-23T02:48:04.266Z,25.33
2022-08-23T02:48:45.525Z,25.32
2022-08-23T02:49:29.149Z,25.31
2022-08-23T02:50:18.310Z,25.31
2022-08-23T02:51:10.607Z,25.29
2022-08-23T02:52:10.795Z,25.31
2022-08-23T02:53:09.646Z,25.31
2022-08-23T02:54:03.613Z,25.30
2022-08-23T02:54:47.295Z,25.31
2022-08-23T02:55:54.108Z,25.32
2022-08-23T02:56:46.540Z,25.33
2022-08-23T02:57:35.213Z,25.35
2022-08-23T02:58:12.421Z,25.35
2022-08-23T02:58:59.495Z,25.32
2022-08-23T02:59:49.594Z,25.34
2022-08-23T03:00:30.185Z,25.31
2022-08-23T03:01:19.715Z,25.32
2022-08-23T03:02:09.086Z,25.32
2022-08-23T03:02:53.656Z,25.33
2022-08-23T03:03:30.127Z,25.32
2022-08-23T03:04:10.703Z,25.32
2022-08-23T03:04:50.181Z,25.32
2022-08-23T03:05:33.425Z,25.30
2022-08-23T03:06:24.337Z,25.31
2022-08-23T03:07:03.902Z,25.30
2022-08-23T03:07:46.043Z,25.33
2022-08-23T03:08:25.842Z,25.31
2022-08-23T03:09:18.441Z,25.31
2022-08-23T03:10:03.924Z,25.30
2022-08-23T03:10:54.646Z,25.30
2022-08-23T03:11:45.262Z,25.29
2022-08-23T03:12:32.394Z,25.30
2022-08-23T04:04:24.186Z,25.20
2022-08-23T04:05:10.301Z,25.19
2022-08-23T04:05:48.023Z,25.20
2022-08-23T04:06:32.247Z,25.18
2022-08-23T04:07:23.825Z,25.20
2022-08-23T04:08:18.136Z,25.19
2022-08-23T04:09:29.545Z,25.19
2022-08-23T04:10:22.247Z,25.20
2022-08-23T04:11:15.193Z,25.19
2022-08-23T04:11:59.114Z,25.19
2022-08-23T04:12:45.237Z,25.21
2022-08-23T04:13:39.332Z,25.21
2022-08-23T04:14:35.545Z,25.22
2022-08-23T04:15:30.534Z,25.21
2022-08-23T04:16:18.082Z,25.21
2022-08-23T04:17:32.774Z,25.20
2022-08-23T04:20:37.725Z,25.19
2022-08-23T04:21:25.447Z,25.17
2022-08-23T04:22:11.450Z,25.20
2022-08-23T04:22:53.043Z,25.21
2022-08-23T04:23:38.788Z,25.20
2022-08-23T05:24:07.475Z,25.12
2022-08-23T05:24:54.950Z,25.14
2022-08-23T05:25:43.430Z,25.12
2022-08-23T05:26:27.058Z,25.15
2022-08-23T05:27:09.563Z,25.15
2022-08-23T05:28:02.879Z,25.13
2022-08-23T05:28:44.840Z,25.11
2022-08-23T05:29:33.155Z,25.14
2022-08-23T06:34:40.183Z,25.24
2022-08-23T06:35:39.452Z,25.21
2022-08-23T06:36:29.083Z,25.23
2022-08-23T06:37:11.618Z,25.24
2022-08-23T06:37:56.970Z,25.24
2022-08-23T06:38:42.159Z,25.22
2022-08-23T06:39:25.455Z,25.22
2022-08-23T06:40:07.410Z,25.24
2022-08-23T06:40:46.824Z,25.23
2022-08-23T06:41:35.679Z,25.22
2022-08-23T06:42:38.195Z,25.24
2022-08-23T06:43:22.984Z,25.24
2022-08-23T06:44:06.260Z,25.21
2022-08-23T06:44:44.685Z,25.24
2022-08-23T06:45:27.017Z,25.24
2022-08-23T06:46:17.325Z,25.25
2022-08-23T06:46:57.868Z,25.25
2022-08-23T06:47:39.805Z,25.26
2022-08-23T06:48:21.178Z,25.28
2022-08-23T06:49:04.650Z,25.27
2022-08-23T06:49:51.153Z,25.26
2022-08-23T06:50:36.790Z,25.28
2022-08-23T06:51:20.044Z,25.29
2022-08-23T06:51:59.689Z,25.30
2022-08-23T06:52:37.324Z,25.30
2022-08-23T06:53:28.690Z,25.30
2022-08-23T06:55:26.052Z,25.31
2022-08-23T06:56:19.500Z,25.30
2022-08-23T06:57:06.267Z,25.30
2022-08-23T06:58:00.692Z,25.29
2022-08-23T06:58:52.783Z,25.30
2022-08-23T06:59:49.344Z,25.31
2022-08-23T07:00:42.670Z,25.32
2022-08-23T07:01:44.507Z,25.31
2022-08-23T07:02:37.339Z,25.30
2022-08-23T07:03:40.442Z,25.31
2022-08-23T07:04:37.162Z,25.32
2022-08-23T07:05:45.821Z,25.34
2022-08-23T07:06:46.071Z,25.32
2022-08-23T07:07:45.481Z,25.32
2022-08-23T07:08:43.836Z,25.32
2022-08-23T07:09:48.906Z,25.31
2022-08-23T07:15:21.484Z,25.32
2022-08-23T07:16:09.649Z,25.33
2022-08-23T07:16:58.252Z,25.35
2022-08-23T07:17:53.895Z,25.36
2022-08-23T07:18:46.712Z,25.33
2022-08-23T07:19:53.344Z,25.33
2022-08-23T07:26:04.817Z,25.36
2022-08-23T07:26:52.999Z,25.37
2022-08-23T07:27:45.269Z,25.36
2022-08-23T07:28:34.652Z,25.36
2022-08-23T07:29:31.630Z,25.37
2022-08-23T07:30:33.835Z,25.36
2022-08-23T07:31:30.026Z,25.36
2022-08-23T07:32:22.814Z,25.35
2022-08-23T07:33:19.662Z,25.33
2022-08-23T07:34:22.913Z,25.35
2022-08-23T07:37:38.350Z,25.37
2022-08-23T07:38:16.807Z,25.39
2022-08-23T07:38:54.364Z,25.36
2022-08-23T07:39:32.655Z,25.38
2022-08-23T07:40:10.533Z,25.37
2022-08-23T07:40:57.358Z,25.35
2022-08-23T07:41:40.922Z,25.35
2022-08-23T07:42:24.868Z,25.39
2022-08-23T07:43:06.102Z,25.37
2022-08-23T07:43:46.003Z,25.38
2022-08-23T07:44:27.146Z,25.39
2022-08-23T07:45:10.018Z,25.39
2022-08-23T07:45:51.706Z,25.40
2022-08-23T07:46:37.583Z,25.38
2022-08-23T07:47:23.731Z,25.40
2022-08-23T07:48:09.294Z,25.38
2022-08-23T07:48:54.970Z,25.38
2022-08-23T07:49:45.351Z,25.38
2022-08-23T07:50:22.767Z,25.39
2022-08-23T07:51:02.595Z,25.41
2022-08-23T07:51:47.011Z,25.39
2022-08-23T07:52:25.380Z,25.40
2022-08-23T07:53:04.418Z,25.43
2022-08-23T07:53:46.405Z,25.43
2022-08-23T07:54:27.330Z,25.42
2022-08-23T07:55:05.135Z,25.34
2022-08-23T07:55:42.267Z,25.33
2022-08-23T07:56:19.695Z,25.37
2022-08-23T07:56:57.996Z,25.39
2022-08-23T07:57:35.435Z,25.37
2022-08-23T07:58:13.597Z,25.37
2022-08-23T07:58:50.588Z,25.38
2022-08-23T07:59:31.442Z,25.38
2022-08-23T08:00:11.452Z,25.41
2022-08-23T08:00:49.233Z,25.43
2022-08-23T08:01:26.635Z,25.42
2022-08-23T08:02:03.640Z,25.43
2022-08-23T08:02:40.345Z,25.42
2022-08-23T08:03:17.989Z,25.38
2022-08-23T08:03:55.329Z,25.39
2022-08-23T08:04:32.874Z,25.44
2022-08-23T08:05:09.737Z,25.41
2022-08-23T08:05:48.347Z,25.42
2022-08-23T08:06:28.347Z,25.42
2022-08-23T08:07:18.773Z,25.42
2022-08-23T08:07:57.706Z,25.45
2022-08-23T08:08:37.892Z,25.44
2022-08-23T08:09:19.494Z,25.42
2022-08-23T08:10:04.102Z,25.42
2022-08-23T08:10:52.632Z,25.43
2022-08-23T08:11:35.212Z,25.44
2022-08-23T08:12:12.773Z,25.40
2022-08-23T08:12:50.456Z,25.42
2022-08-23T08:13:27.300Z,25.45
2022-08-23T08:14:04.147Z,25.44
2022-08-23T08:14:42.235Z,25.39
2022-08-23T08:15:20.465Z,25.38
2022-08-23T08:15:58.785Z,25.42
2022-08-23T08:16:36.005Z,25.43
2022-08-23T08:17:13.859Z,25.44
2022-08-23T08:17:51.816Z,25.48
2022-08-23T08:18:29.100Z,25.46
2022-08-23T08:19:07.812Z,25.45
2022-08-23T08:19:46.054Z,25.40
2022-08-23T08:20:23.433Z,25.42
2022-08-23T08:21:00.476Z,25.45
2022-08-23T08:21:38.856Z,25.47
2022-08-23T08:22:21.611Z,25.46
2022-08-23T08:23:02.481Z,25.49
2022-08-23T08:23:44.624Z,25.49
2022-08-23T08:24:25.465Z,25.50
2022-08-23T08:25:07.822Z,25.49
2022-08-23T08:25:49.521Z,25.51
2022-08-23T08:26:30.225Z,25.49
2022-08-23T08:27:08.672Z,25.47
2022-08-23T08:27:48.705Z,25.48
2022-08-23T08:28:28.230Z,25.50
2022-08-23T08:29:06.136Z,25.52
2022-08-23T08:29:47.103Z,25.51
2022-08-23T08:30:28.341Z,25.50
2022-08-23T08:31:10.744Z,25.51
2022-08-23T08:31:54.297Z,25.52
2022-08-23T08:32:35.670Z,25.53
2022-08-23T08:33:16.775Z,25.52
2022-08-23T08:33:55.348Z,25.51
2022-08-23T08:34:33.093Z,25.50
2022-08-23T08:35:10.598Z,25.50
2022-08-23T08:35:57.876Z,25.52
2022-08-23T08:36:41.746Z,25.52
2022-08-23T08:37:27.439Z,25.54
2022-08-23T08:38:09.331Z,25.51
2022-08-23T08:38:47.907Z,25.51
2022-08-23T08:39:33.752Z,25.53
2022-08-23T08:40:11.668Z,25.54
2022-08-23T08:40:48.535Z,25.54
2022-08-23T08:41:28.174Z,25.53
2022-08-23T08:42:04.874Z,25.55
2022-08-23T08:42:51.799Z,25.53
2022-08-23T08:43:38.017Z,25.52
2022-08-23T08:44:44.542Z,25.52
2022-08-23T08:45:26.702Z,25.48
2022-08-23T08:46:16.115Z,25.47
2022-08-23T08:46:56.858Z,25.50
2022-08-23T08:47:41.796Z,25.49
2022-08-23T08:48:19.830Z,25.51
2022-08-23T08:48:59.257Z,25.51
2022-08-23T08:50:00.929Z,25.52
2022-08-23T08:50:39.456Z,25.50
2022-08-23T08:51:23.760Z,25.51
2022-08-23T08:52:01.813Z,25.52
2022-08-23T08:52:38.397Z,25.50
2022-08-23T08:53:16.250Z,25.51
2022-08-23T08:53:53.253Z,25.53
2022-08-23T08:54:30.598Z,25.55
2022-08-23T08:55:09.335Z,25.54
2022-08-23T08:55:50.702Z,25.53
2022-08-23T08:56:33.723Z,25.53
2022-08-23T08:57:18.312Z,25.53
2022-08-23T08:58:04.674Z,25.49
2022-08-23T08:58:45.073Z,25.51
2022-08-23T08:59:26.568Z,25.49
2022-08-23T09:00:04.254Z,25.50
2022-08-23T09:00:41.860Z,25.48
2022-08-23T09:01:19.591Z,25.47
2022-08-23T09:01:57.415Z,25.49
2022-08-23T09:02:38.129Z,25.46
2022-08-23T09:03:22.284Z,25.47
2022-08-23T09:04:00.120Z,25.49
2022-08-23T09:04:37.246Z,25.48
2022-08-23T09:05:18.734Z,25.49
2022-08-23T09:06:15.867Z,25.50
2022-08-23T09:07:01.560Z,25.51
2022-08-23T09:07:46.045Z,25.50
2022-08-23T09:08:37.973Z,25.49
2022-08-23T09:09:25.280Z,25.44
2022-08-23T09:10:04.004Z,25.46
2022-08-23T09:10:44.388Z,25.46
2022-08-23T09:11:22.317Z,25.49
2022-08-23T09:12:00.672Z,25.47
2022-08-23T09:12:41.696Z,25.49
2022-08-23T09:13:35.581Z,25.49
2022-08-23T09:14:15.638Z,25.51
2022-08-23T09:14:54.198Z,25.49
2022-08-23T09:15:29.856Z,25.49
2022-08-23T09:16:17.023Z,25.50
2022-08-23T09:16:54.584Z,25.50
2022-08-23T09:17:43.903Z,25.48
2022-08-23T09:18:29.416Z,25.48
2022-08-23T09:19:13.737Z,25.50
2022-08-23T09:19:55.336Z,25.48
2022-08-23T09:20:34.842Z,25.54
2022-08-23T09:21:11.899Z,25.53
2022-08-23T09:21:52.235Z,25.53
2022-08-23T09:22:33.162Z,25.52
2022-08-23T09:23:14.005Z,25.49
2022-08-23T09:24:00.967Z,25.49
2022-08-23T09:24:40.264Z,25.48
2022-08-23T09:25:19.288Z,25.49
2022-08-23T09:26:03.748Z,25.51
2022-08-23T09:26:44.721Z,25.53
2022-08-23T09:27:29.351Z,25.54
2022-08-23T09:28:18.634Z,25.55
2022-08-23T09:29:04.680Z,25.54
2022-08-23T09:29:45.189Z,25.54
2022-08-23T09:30:23.001Z,25.55
2022-08-23T09:31:00.975Z,25.58
2022-08-23T09:31:39.494Z,25.53
2022-08-23T09:32:29.485Z,25.54
2022-08-23T09:33:20.256Z,25.54
2022-08-23T09:34:04.801Z,25.57
2022-08-23T09:34:50.951Z,25.59
2022-08-23T09:35:40.519Z,25.59
2022-08-23T09:36:23.567Z,25.60
2022-08-23T09:37:10.141Z,25.60
2022-08-23T09:37:54.653Z,25.60
2022-08-23T09:38:32.409Z,25.56
2022-08-23T09:39:30.450Z,25.60
2022-08-23T09:40:21.137Z,25.59
2022-08-23T09:40:59.339Z,25.56
2022-08-23T09:41:36.997Z,25.61
2022-08-23T09:42:33.525Z,25.58
2022-08-23T09:43:25.792Z,25.61
2022-08-23T09:44:02.871Z,25.60
2022-08-23T09:44:43.398Z,25.60
2022-08-23T09:45:35.085Z,25.61
2022-08-23T09:46:20.776Z,25.60
2022-08-23T09:47:08.981Z,25.62
2022-08-23T09:47:46.488Z,25.63
2022-08-23T09:48:37.658Z,25.63
2022-08-23T09:49:23.768Z,25.62
2022-08-23T09:50:18.428Z,25.61
2022-08-23T09:50:57.119Z,25.60
2022-08-23T09:51:35.191Z,25.55
2022-08-23T09:52:16.044Z,25.55
2022-08-23T09:53:05.104Z,25.59
2022-08-23T09:53:43.577Z,25.59
2022-08-23T09:54:24.854Z,25.59
2022-08-23T09:55:06.983Z,25.61
2022-08-23T09:55:45.527Z,25.59
2022-08-23T09:56:27.805Z,25.61
2022-08-23T09:57:11.715Z,25.62
2022-08-23T09:57:59.312Z,25.58
2022-08-23T09:58:43.698Z,25.60
2022-08-23T09:59:28.090Z,25.58
2022-08-23T10:00:29.507Z,25.57
2022-08-23T10:01:18.169Z,25.62
2022-08-23T10:01:55.271Z,25.63
2022-08-23T10:02:33.653Z,25.65
2022-08-23T10:03:27.050Z,25.63
2022-08-23T10:04:14.114Z,25.61
2022-08-23T10:05:11.931Z,25.62
2022-08-23T10:05:54.557Z,25.61
2022-08-23T10:06:33.177Z,25.62
2022-08-23T10:07:30.010Z,25.64
2022-08-23T10:08:11.506Z,25.65
2022-08-23T10:08:55.639Z,25.64
2022-08-23T10:09:33.238Z,25.64
2022-08-23T10:10:17.748Z,25.62
2022-08-23T10:10:55.219Z,25.65
2022-08-23T10:11:33.466Z,25.64
2022-08-23T10:12:11.981Z,25.64
2022-08-23T10:12:49.602Z,25.62
2022-08-23T10:13:28.212Z,25.60
2022-08-23T10:14:06.360Z,25.59
2022-08-23T10:14:45.605Z,25.58
2022-08-23T10:15:26.543Z,25.58
2022-08-23T10:16:26.909Z,25.60
2022-08-23T10:17:14.238Z,25.60
2022-08-23T10:17:57.917Z,25.61
2022-08-23T10:18:49.643Z,25.55
2022-08-23T10:19:36.026Z,25.61
2022-08-23T10:20:14.119Z,25.63
2022-08-23T10:20:54.974Z,25.64
2022-08-23T10:21:31.106Z,25.63
2022-08-23T10:22:09.349Z,25.62
2022-08-23T10:22:46.688Z,25.62
2022-08-23T10:23:45.848Z,25.65
2022-08-23T10:24:24.376Z,25.65
2022-08-23T10:24:59.784Z,25.67
2022-08-23T10:25:35.339Z,25.68
2022-08-23T10:26:15.364Z,25.66
2022-08-23T10:26:53.952Z,25.66
2022-08-23T10:27:30.136Z,25.67
2022-08-23T10:28:39.332Z,25.67
2022-08-23T10:29:18.784Z,25.70
2022-08-23T10:29:56.328Z,25.70
2022-08-23T10:31:00.089Z,25.67
2022-08-23T10:31:51.092Z,25.68
2022-08-23T10:32:29.521Z,25.67
2022-08-23T10:33:05.082Z,25.67
2022-08-23T10:33:46.409Z,25.65
2022-08-23T10:34:45.957Z,25.68
2022-08-23T10:35:30.680Z,25.72
2022-08-23T10:36:32.877Z,25.70
2022-08-23T10:37:31.099Z,25.72
2022-08-23T10:38:09.379Z,25.72
2022-08-23T10:38:44.817Z,25.70
2022-08-23T10:39:29.152Z,25.69
2022-08-23T10:40:23.853Z,25.72
2022-08-23T10:41:22.622Z,25.72
2022-08-23T10:42:08.829Z,25.72
2022-08-23T10:43:02.606Z,25.73
2022-08-23T10:43:53.001Z,25.74
2022-08-23T10:44:30.975Z,25.73
2022-08-23T10:45:16.778Z,25.73
2022-08-23T10:45:58.314Z,25.71
2022-08-23T10:46:54.972Z,25.72
2022-08-23T10:47:38.081Z,25.69
2022-08-23T10:48:40.644Z,25.71
2022-08-23T10:49:28.245Z,25.70
2022-08-23T10:50:09.580Z,25.70
2022-08-23T10:51:23.307Z,25.72
2022-08-23T10:52:09.824Z,25.76
2022-08-23T10:52:50.519Z,25.77
2022-08-23T10:53:30.087Z,25.75
2022-08-23T10:54:07.822Z,25.74
2022-08-23T10:55:06.801Z,25.73
2022-08-23T10:55:52.791Z,25.73
2022-08-23T10:56:29.800Z,25.73
2022-08-23T10:57:07.650Z,25.72
2022-08-23T10:57:44.779Z,25.74
2022-08-23T10:58:23.837Z,25.73
2022-08-23T10:59:02.311Z,25.76
2022-08-23T10:59:40.379Z,25.73
2022-08-23T11:00:20.344Z,25.74
2022-08-23T11:00:58.464Z,25.75
2022-08-23T11:01:42.067Z,25.79
2022-08-23T11:02:26.345Z,25.78
2022-08-23T11:03:14.820Z,25.77
2022-08-23T11:04:05.629Z,25.77
2022-08-23T11:04:46.693Z,25.74
2022-08-23T11:05:24.295Z,25.76
2022-08-23T11:06:22.527Z,25.75
2022-08-23T11:07:11.623Z,25.76
2022-08-23T11:07:59.020Z,25.76
2022-08-23T11:08:36.265Z,25.76
2022-08-23T11:09:11.979Z,25.76
2022-08-23T11:09:50.213Z,25.78
2022-08-23T11:10:32.533Z,25.75
2022-08-23T11:11:09.510Z,25.77
2022-08-23T11:12:03.482Z,25.80
2022-08-23T11:13:03.274Z,25.79
2022-08-23T11:13:40.399Z,25.78
2022-08-23T11:14:30.605Z,25.78
2022-08-23T11:15:08.676Z,25.78
2022-08-23T11:15:48.285Z,25.77
2022-08-23T11:16:27.984Z,25.79
2022-08-23T11:17:21.416Z,25.79
2022-08-23T11:18:07.753Z,25.80
2022-08-23T11:18:43.281Z,25.76
2022-08-23T11:19:23.329Z,25.77
2022-08-23T11:20:03.420Z,25.75
2022-08-23T11:20:51.262Z,25.78
2022-08-23T11:21:27.237Z,25.79
2022-08-23T11:22:28.776Z,25.79
2022-08-23T11:23:06.333Z,25.76
2022-08-23T11:23:49.509Z,25.77
2022-08-23T11:24:32.853Z,25.76
2022-08-23T11:25:30.657Z,25.76
2022-08-23T11:26:12.772Z,25.78
2022-08-23T11:26:48.382Z,25.80
2022-08-23T11:27:29.109Z,25.80
2022-08-23T11:28:24.070Z,25.82
2022-08-23T11:29:02.528Z,25.80
2022-08-23T11:29:41.615Z,25.80
2022-08-23T11:30:33.189Z,25.77
2022-08-23T11:31:27.922Z,25.76
2022-08-23T11:32:16.476Z,25.79
2022-08-23T11:32:57.538Z,25.79
2022-08-23T11:33:37.480Z,25.80
2022-08-23T11:34:29.989Z,25.80
2022-08-23T11:35:26.575Z,25.77
2022-08-23T11:36:11.863Z,25.78
2022-08-23T11:37:07.783Z,25.80
2022-08-23T11:37:52.218Z,25.82
2022-08-23T11:38:46.932Z,25.79
2022-08-23T11:39:30.419Z,25.77
2022-08-23T11:40:17.504Z,25.79
2022-08-23T11:40:54.916Z,25.81
2022-08-23T11:41:37.108Z,25.78
2022-08-23T11:42:33.368Z,25.81
2022-08-23T11:43:22.301Z,25.78
2022-08-23T11:43:58.056Z,25.76
2022-08-23T11:44:42.518Z,25.79
2022-08-23T11:45:38.783Z,25.81
2022-08-23T11:46:28.641Z,25.83
2022-08-23T11:47:05.821Z,25.81
2022-08-23T11:47:44.826Z,25.78
2022-08-23T11:48:29.762Z,25.81
2022-08-23T11:49:25.628Z,25.80
2022-08-23T11:50:08.059Z,25.82
2022-08-23T11:50:57.743Z,25.83
2022-08-23T11:51:45.366Z,25.85
2022-08-23T11:52:28.124Z,25.82
2022-08-23T11:53:10.068Z,25.80
2022-08-23T11:53:54.731Z,25.81
2022-08-23T11:54:31.038Z,25.80
2022-08-23T11:55:13.877Z,25.80
2022-08-23T11:56:11.728Z,25.79
2022-08-23T11:57:08.896Z,25.80
2022-08-23T11:57:48.630Z,25.80
2022-08-23T11:58:24.361Z,25.82
2022-08-23T11:59:02.850Z,25.81
2022-08-23T11:59:59.918Z,25.79
2022-08-23T12:00:57.107Z,25.80
2022-08-23T12:01:37.118Z,25.79
2022-08-23T12:02:31.571Z,25.83
2022-08-23T12:03:07.826Z,25.81
2022-08-23T12:04:00.783Z,25.80
2022-08-23T12:04:41.381Z,25.81
2022-08-23T12:05:17.076Z,25.81
2022-08-23T12:05:52.556Z,25.80
2022-08-23T12:06:28.103Z,25.82
2022-08-23T12:07:06.305Z,25.82
2022-08-23T12:08:05.679Z,25.84
2022-08-23T12:08:47.632Z,25.82
2022-08-23T12:09:25.742Z,25.82
2022-08-23T12:10:03.573Z,25.82
2022-08-23T12:10:42.049Z,25.77
2022-08-23T12:11:19.569Z,25.82
2022-08-23T12:11:58.534Z,25.81
2022-08-23T12:12:40.981Z,25.82
2022-08-23T12:13:21.900Z,25.83
2022-08-23T12:14:00.605Z,25.82
2022-08-23T12:14:47.227Z,25.84
2022-08-23T12:15:32.043Z,25.82
2022-08-23T12:16:16.690Z,25.80
2022-08-23T12:17:06.343Z,25.81
2022-08-23T12:17:42.580Z,25.77
2022-08-23T12:18:25.023Z,25.80
2022-08-23T12:19:13.561Z,25.80
2022-08-23T12:19:59.170Z,25.82
2022-08-23T12:20:36.173Z,25.81
2022-08-23T12:21:33.906Z,25.81
2022-08-23T12:22:15.921Z,25.83
2022-08-23T12:23:00.305Z,25.83
2022-08-23T12:23:56.011Z,25.82
2022-08-23T12:24:44.541Z,25.81
2022-08-23T12:25:21.715Z,25.81
2022-08-23T12:26:01.862Z,25.80
2022-08-23T12:26:40.764Z,25.82
2022-08-23T12:27:19.449Z,25.81
2022-08-23T12:27:58.854Z,25.82
2022-08-23T12:28:53.312Z,25.84
2022-08-23T12:29:36.317Z,25.83
2022-08-23T12:30:12.378Z,25.81
2022-08-23T12:30:57.239Z,25.81
2022-08-23T12:31:51.998Z,25.84
2022-08-23T12:32:49.339Z,25.84
2022-08-23T12:33:45.835Z,25.84
2022-08-23T12:34:47.506Z,25.83
2022-08-23T12:35:34.524Z,25.80
2022-08-23T12:36:16.457Z,25.76
2022-08-23T12:37:09.719Z,25.80
2022-08-23T12:37:55.823Z,25.82
2022-08-23T12:38:31.367Z,25.84
2022-08-23T12:39:09.258Z,25.83
2022-08-23T12:40:01.210Z,25.82
2022-08-23T12:40:42.708Z,25.81
2022-08-23T12:41:22.468Z,25.82
2022-08-23T12:42:14.466Z,25.81
2022-08-23T12:43:03.013Z,25.86
2022-08-23T12:43:42.771Z,25.84
2022-08-23T12:44:22.460Z,25.84
2022-08-23T12:45:02.185Z,25.84
2022-08-23T12:45:40.595Z,25.85
2022-08-23T12:46:26.088Z,25.85
2022-08-23T12:47:14.001Z,25.82
2022-08-23T12:48:05.931Z,25.84
2022-08-23T12:48:48.587Z,25.82
2022-08-23T12:49:31.791Z,25.82
2022-08-23T12:50:09.362Z,25.84
2022-08-23T12:50:47.051Z,25.84
2022-08-23T12:51:24.672Z,25.86
2022-08-23T12:52:02.405Z,25.84
2022-08-23T12:52:40.813Z,25.84
2022-08-23T12:53:20.800Z,25.88
2022-08-23T12:53:58.712Z,25.85
2022-08-23T12:54:44.857Z,25.87
2022-08-23T12:55:22.639Z,25.84
2022-08-23T12:56:03.558Z,25.84
2022-08-23T12:56:45.362Z,25.85
2022-08-23T12:57:35.330Z,25.85
2022-08-23T12:58:21.301Z,25.88
2022-08-23T12:59:12.646Z,25.84
2022-08-23T13:00:16.937Z,25.86
2022-08-23T13:00:57.031Z,25.86
2022-08-23T13:01:38.690Z,25.86
2022-08-23T13:02:34.789Z,25.85
2022-08-23T13:03:19.924Z,25.85
2022-08-23T13:04:07.826Z,25.86
2022-08-23T13:04:44.829Z,25.84
2022-08-23T13:05:33.112Z,25.84
2022-08-23T13:06:19.292Z,25.83
2022-08-23T13:07:02.358Z,25.81
2022-08-23T13:07:44.795Z,25.79
2022-08-23T13:08:34.778Z,25.83
2022-08-23T13:09:25.252Z,25.85
2022-08-23T13:10:03.376Z,25.86
2022-08-23T13:10:40.550Z,25.85
2022-08-23T13:11:19.566Z,25.86
2022-08-23T13:11:57.469Z,25.87
2022-08-23T13:12:35.351Z,25.85
2022-08-23T13:13:12.886Z,25.87
2022-08-23T13:13:50.240Z,25.84
2022-08-23T13:14:52.841Z,25.86
2022-08-23T13:15:43.718Z,25.84
2022-08-23T13:16:37.668Z,25.83
2022-08-23T13:17:20.510Z,25.85
2022-08-23T13:18:14.757Z,25.85
2022-08-23T13:18:54.707Z,25.84
2022-08-23T13:19:34.177Z,25.84
2022-08-23T13:20:09.779Z,25.88
2022-08-23T13:20:48.594Z,25.86
2022-08-23T13:21:24.026Z,25.87
2022-08-23T13:22:19.079Z,25.85
2022-08-23T13:23:01.893Z,25.86
2022-08-23T13:23:39.498Z,25.86
2022-08-23T13:24:37.720Z,25.87
2022-08-23T13:25:32.292Z,25.85
2022-08-23T13:26:29.246Z,25.83
2022-08-23T13:27:13.748Z,25.84
2022-08-23T13:28:05.002Z,25.86
2022-08-23T13:28:51.135Z,25.86
2022-08-23T13:29:41.625Z,25.89
2022-08-23T13:30:17.922Z,25.85
2022-08-23T13:31:01.557Z,25.83
2022-08-23T13:31:50.862Z,25.86
2022-08-23T13:32:34.515Z,25.86
2022-08-23T13:33:10.816Z,25.87
2022-08-23T13:33:57.364Z,25.87
2022-08-23T13:34:49.010Z,25.89
2022-08-23T13:35:26.523Z,25.89
2022-08-23T13:36:13.347Z,25.88
2022-08-23T13:36:50.062Z,25.87
2022-08-23T13:37:26.554Z,25.84
2022-08-23T13:38:04.959Z,25.88
2022-08-23T13:38:42.990Z,25.87
2022-08-23T13:39:20.994Z,25.88
2022-08-23T13:40:07.815Z,25.92
2022-08-23T13:40:56.857Z,25.94
2022-08-23T13:41:39.845Z,25.98
2022-08-23T13:42:19.031Z,25.96
2022-08-23T13:42:56.937Z,25.94
2022-08-23T13:43:35.081Z,25.93
2022-08-23T13:44:16.922Z,25.95
2022-08-23T13:44:55.739Z,25.93
2022-08-23T13:45:33.952Z,25.93
2022-08-23T13:46:41.805Z,25.92
2022-08-23T13:47:28.609Z,25.95
2022-08-23T13:48:13.013Z,25.92
2022-08-23T13:49:00.293Z,25.97
2022-08-23T13:49:44.767Z,25.98
2022-08-23T13:50:25.816Z,25.99
2022-08-23T13:51:24.382Z,25.97
2022-08-23T13:52:45.488Z,25.96
2022-08-23T13:53:17.493Z,25.93
2022-08-23T13:54:00.502Z,25.95
2022-08-23T13:54:43.010Z,25.95
2022-08-23T13:55:19.927Z,25.92
2022-08-23T13:55:57.464Z,25.94
2022-08-23T13:56:34.977Z,25.95
2022-08-23T13:57:14.637Z,25.94
2022-08-23T13:57:54.924Z,25.92
2022-08-23T13:58:32.268Z,25.93
2022-08-23T13:59:20.328Z,25.93
2022-08-23T13:59:58.253Z,25.94
2022-08-23T14:00:36.517Z,25.89
2022-08-23T14:01:15.686Z,25.90
2022-08-23T14:01:53.355Z,25.91
2022-08-23T14:02:31.403Z,25.90
2022-08-23T14:03:10.537Z,25.90
2022-08-23T14:03:48.744Z,25.95
2022-08-23T14:04:25.908Z,25.93
2022-08-23T14:05:03.794Z,25.96
2022-08-23T14:05:41.666Z,25.96
2022-08-23T14:06:22.284Z,25.98
2022-08-23T14:07:02.699Z,25.98
2022-08-23T14:07:44.259Z,25.97
2022-08-23T14:08:30.067Z,26.02
2022-08-23T14:09:17.219Z,26.00
2022-08-23T14:10:04.044Z,26.04
2022-08-23T14:10:47.977Z,26.02
2022-08-23T14:11:25.889Z,26.05
2022-08-23T14:12:04.041Z,26.05